Hauptseite
METAR-TAF:

METAR-TAF

Flughäfen :

Flughafen Entebbe

Entebbe, Uganda

Breite: 00-03N, Länge: 032-27E, Höhe: 1155 m

Beobachtung

Neuester Wetterbericht von vor 7 Stunden und 36 Minuten, um 21:00 UTC
Wind 4 kt aus Südwest
Temperatur 22°C
Luftfeuchtigkeit 69%
Luftdruck 1018 hPa
Sichtweite 10 km oder mehr
keine Wolken unter 1500 m und keine Kumulonimbus oder Gewitterwolken

METAR: HUEN 242100Z 23004KT CAVOK 22/16 Q1018 NOSIG

Zeit: 07:36 (04:36 UTC)

Prognose

Neuester Wetterbericht von vor 5 Stunden und 36 Minuten, um 23:00 UTC
Gültige Prognose vom 25 um 00 UTC bis 26 um 06 UTC
Wind 14 kt aus Süd
Sichtweite 10 km oder mehr
Leicht bewölkt in der Höhe von 2300 ft
Leicht bewölkt in der Höhe von 2500 ft, Kumulonimbus.

TAF: HUEN 242300Z 2500/2606 18014KT 9999 FEW023 FEW025CB

Wetterbeobachtungen und Prognosen von mehr als 4000 Flughäfen (METAR und TAF Bericht).

Die verfügbaren Stationen werden durch gelbe und rote Markierungen auf der Karte dargestellt.

Führen Sie die Maus auf sie, um den Namen der Station zu sehen.

Darauf klicken, um die Beobachtung von Wetterbeobachtungen und Prognosen zu sehen.

Um die Karte zu ändern : klicken Sie auf den grünen Tasten mit einem schwarzen Kreuz Zum Vergrößern, auf den grünen Button mit einem Gedankenstrich zu verkleinern, oder auf die grünen Pfeile für benachbarte Karten.


METAR-TAF: